createdAt,value
2024-01-07T00:03:17.937Z,4.66
2024-01-07T00:09:06.631Z,4.66
2024-01-07T00:14:54.342Z,4.82
2024-01-07T00:20:43.573Z,4.73
2024-01-07T00:26:34.661Z,4.49
2024-01-07T00:32:21.464Z,4.47
2024-01-07T00:38:08.151Z,4.47
2024-01-07T00:51:36.425Z,4.20
2024-01-07T00:57:23.748Z,4.06
2024-01-07T01:03:10.572Z,3.99
2024-01-07T01:09:02.845Z,3.89
2024-01-07T01:14:52.768Z,3.97
2024-01-07T01:20:46.062Z,3.88
2024-01-07T01:26:33.000Z,3.83
2024-01-07T01:32:25.104Z,3.81
2024-01-07T01:38:12.613Z,3.63
2024-01-07T01:44:00.589Z,3.60
2024-01-07T01:49:50.566Z,3.54
2024-01-07T01:55:37.644Z,3.42
2024-01-07T02:01:27.830Z,3.25
2024-01-07T02:07:14.791Z,3.28
2024-01-07T02:13:06.651Z,3.32
2024-01-07T02:18:53.555Z,3.16
2024-01-07T02:24:42.924Z,3.13
2024-01-07T02:30:29.765Z,3.18
2024-01-07T02:36:16.936Z,3.15
2024-01-07T02:42:03.980Z,2.96
2024-01-07T02:47:51.767Z,2.96
2024-01-07T02:53:38.578Z,3.04
2024-01-07T02:59:25.420Z,2.97
2024-01-07T03:05:12.374Z,3.00
2024-01-07T03:10:59.219Z,2.98
2024-01-07T03:16:46.034Z,3.12
2024-01-07T03:22:33.099Z,3.20
2024-01-07T03:28:19.930Z,3.19
2024-01-07T03:34:06.735Z,3.31
2024-01-07T03:39:53.583Z,2.98
2024-01-07T03:45:40.348Z,3.10
2024-01-07T03:51:27.278Z,3.22
2024-01-07T03:57:14.608Z,2.95
2024-01-07T04:03:02.563Z,2.94
2024-01-07T04:08:51.584Z,2.87
2024-01-07T04:14:38.454Z,2.88
2024-01-07T04:20:25.284Z,2.84
2024-01-07T04:26:12.461Z,2.78
2024-01-07T04:31:59.148Z,2.70
2024-01-07T04:37:56.502Z,2.67
2024-01-07T04:43:45.004Z,2.68
2024-01-07T04:49:37.571Z,2.66
2024-01-07T04:55:27.501Z,2.73
2024-01-07T05:01:22.969Z,2.65
2024-01-07T05:07:10.066Z,2.65
2024-01-07T05:12:56.952Z,2.57
2024-01-07T05:18:44.398Z,2.52
2024-01-07T05:24:33.623Z,2.51
2024-01-07T05:30:21.722Z,2.45
2024-01-07T05:36:08.531Z,2.46
2024-01-07T05:41:55.388Z,2.52
2024-01-07T05:47:42.382Z,2.51
2024-01-07T05:53:31.305Z,2.58
2024-01-07T05:59:19.465Z,2.62
2024-01-07T06:05:06.863Z,2.61
2024-01-07T06:10:53.716Z,2.59
2024-01-07T06:16:40.456Z,2.50
2024-01-07T06:22:27.389Z,2.42
2024-01-07T06:28:14.103Z,2.42
2024-01-07T06:34:01.212Z,2.41
2024-01-07T06:39:48.610Z,2.40
2024-01-07T06:45:37.653Z,2.36
2024-01-07T06:51:24.467Z,2.48
2024-01-07T06:57:11.359Z,2.48
2024-01-07T07:02:58.223Z,2.50
2024-01-07T07:08:45.392Z,2.41
2024-01-07T07:14:32.240Z,2.50
2024-01-07T07:20:19.962Z,2.55
2024-01-07T07:26:09.580Z,2.55
2024-01-07T07:32:01.232Z,2.45
2024-01-07T07:37:48.520Z,2.65
2024-01-07T07:43:35.615Z,2.59
2024-01-07T07:49:23.710Z,2.70
2024-01-07T07:55:14.170Z,2.54
2024-01-07T08:01:01.361Z,2.42
2024-01-07T08:06:51.069Z,2.45
2024-01-07T08:12:40.257Z,2.58
2024-01-07T08:18:28.786Z,2.68
2024-01-07T08:24:16.019Z,2.76
2024-01-07T08:30:05.992Z,2.86
2024-01-07T08:35:54.990Z,2.89
2024-01-07T08:41:42.019Z,3.06
2024-01-07T08:47:32.863Z,3.23
2024-01-07T08:53:23.801Z,3.10
2024-01-07T08:59:11.222Z,3.29
2024-01-07T09:05:03.501Z,3.52
2024-01-07T09:11:01.520Z,3.66
2024-01-07T09:16:50.041Z,3.89
2024-01-07T09:22:41.789Z,3.75
2024-01-07T09:28:28.757Z,4.01
2024-01-07T09:34:16.188Z,4.39
2024-01-07T09:45:55.051Z,4.46
2024-01-07T09:51:45.860Z,4.49
2024-01-07T09:57:32.831Z,4.83
2024-01-07T10:03:28.703Z,4.48
2024-01-07T10:09:17.046Z,4.46
2024-01-07T10:15:04.445Z,4.37
2024-01-07T10:20:55.309Z,4.76
2024-01-07T10:26:45.238Z,4.82
2024-01-07T10:32:32.430Z,5.11
2024-01-07T10:38:19.488Z,5.15
2024-01-07T10:44:06.632Z,5.44
2024-01-07T10:50:00.639Z,5.03
2024-01-07T10:56:00.761Z,5.35
2024-01-07T11:01:50.025Z,4.94
2024-01-07T11:07:43.017Z,4.93
2024-01-07T11:13:34.865Z,4.85
2024-01-07T11:19:22.106Z,4.82
2024-01-07T11:25:30.899Z,5.12
2024-01-07T11:31:24.895Z,5.30
2024-01-07T11:37:15.846Z,5.37
2024-01-07T11:43:03.721Z,4.96
2024-01-07T11:49:04.079Z,4.80
2024-01-07T11:54:51.668Z,4.70
2024-01-07T12:00:38.875Z,4.98
2024-01-07T12:06:26.383Z,4.87
2024-01-07T12:12:14.545Z,5.00
2024-01-07T12:18:03.548Z,4.96
2024-01-07T12:23:52.365Z,5.11
2024-01-07T12:29:39.351Z,5.05
2024-01-07T12:35:29.605Z,5.10
2024-01-07T12:41:19.979Z,5.22
2024-01-07T12:47:06.908Z,4.97
2024-01-07T12:53:10.545Z,4.89
2024-01-07T12:58:57.517Z,4.82
2024-01-07T13:04:46.701Z,4.88
2024-01-07T13:10:36.363Z,4.76
2024-01-07T13:16:28.377Z,4.75
2024-01-07T13:22:16.138Z,4.86
2024-01-07T13:28:03.390Z,4.92
2024-01-07T13:33:50.836Z,4.87
2024-01-07T13:39:45.344Z,4.99
2024-01-07T13:51:49.576Z,4.88
2024-01-07T13:57:37.649Z,4.97
2024-01-07T14:04:06.517Z,5.03
2024-01-07T14:10:27.607Z,5.09
2024-01-07T14:16:16.698Z,4.84
2024-01-07T14:22:03.876Z,4.91
2024-01-07T14:35:46.507Z,4.78
2024-01-07T14:42:06.059Z,4.91
2024-01-07T14:47:53.316Z,4.82
2024-01-07T14:53:40.151Z,4.73
2024-01-07T14:59:27.904Z,4.64
2024-01-07T15:05:15.040Z,4.67
2024-01-07T15:11:02.402Z,4.67
2024-01-07T15:16:55.137Z,4.66
2024-01-07T15:22:42.160Z,4.65
2024-01-07T15:28:29.210Z,4.56
2024-01-07T15:34:16.132Z,4.54
2024-01-07T15:40:04.392Z,4.63
2024-01-07T15:45:51.549Z,4.56
2024-01-07T15:51:43.291Z,4.39
2024-01-07T15:57:30.134Z,4.41
2024-01-07T16:03:20.240Z,4.48
2024-01-07T16:09:07.516Z,4.42
2024-01-07T16:14:59.991Z,4.41
2024-01-07T16:20:52.666Z,4.46
2024-01-07T16:26:45.915Z,4.35
2024-01-07T16:32:32.923Z,4.38
2024-01-07T16:38:20.731Z,4.50
2024-01-07T16:44:10.914Z,4.37
2024-01-07T16:50:20.993Z,4.44
2024-01-07T16:56:08.899Z,4.20
2024-01-07T17:01:56.697Z,4.23
2024-01-07T17:07:49.532Z,4.19
2024-01-07T17:13:48.674Z,4.13
2024-01-07T17:19:35.545Z,4.07
2024-01-07T17:25:22.635Z,4.16
2024-01-07T17:31:10.134Z,3.93
2024-01-07T17:36:57.069Z,4.11
2024-01-07T17:42:47.046Z,4.22
2024-01-07T17:48:35.743Z,4.09
2024-01-07T17:54:22.624Z,4.18
2024-01-07T18:00:15.251Z,4.14
2024-01-07T18:06:05.360Z,4.16
2024-01-07T18:11:52.656Z,3.95
2024-01-07T18:17:44.628Z,3.78
2024-01-07T18:23:31.513Z,3.83
2024-01-07T18:29:18.583Z,3.72
2024-01-07T18:35:06.088Z,3.82
2024-01-07T18:40:55.916Z,3.68
2024-01-07T18:46:47.534Z,3.60
2024-01-07T18:52:39.065Z,3.58
2024-01-07T18:58:26.210Z,3.80
2024-01-07T19:04:16.364Z,3.94
2024-01-07T19:10:04.803Z,3.94
2024-01-07T19:15:52.365Z,3.81
2024-01-07T19:21:42.482Z,3.90
2024-01-07T19:27:33.503Z,3.80
2024-01-07T19:33:20.834Z,3.96
2024-01-07T19:39:19.679Z,3.87
2024-01-07T19:45:10.580Z,3.91
2024-01-07T19:51:00.165Z,3.85
2024-01-07T19:56:50.044Z,3.77
2024-01-07T20:02:38.261Z,3.72
2024-01-07T20:09:01.744Z,3.73
2024-01-07T20:14:56.997Z,3.73
2024-01-07T20:21:24.730Z,3.80
2024-01-07T20:27:17.977Z,3.87
2024-01-07T20:33:12.145Z,3.86
2024-01-07T20:38:59.497Z,3.72
2024-01-07T20:44:47.929Z,3.69
2024-01-07T20:50:36.242Z,3.80
2024-01-07T20:56:23.874Z,3.72
2024-01-07T21:02:15.373Z,3.90
2024-01-07T21:08:04.814Z,3.82
2024-01-07T21:14:03.174Z,3.75
2024-01-07T21:19:50.738Z,3.51
2024-01-07T21:25:37.779Z,3.60
2024-01-07T21:31:25.414Z,3.50
2024-01-07T21:37:12.282Z,3.43
2024-01-07T21:42:59.915Z,3.31
2024-01-07T21:48:47.578Z,3.52
2024-01-07T21:54:34.753Z,3.38
2024-01-07T22:00:22.421Z,3.41
2024-01-07T22:06:23.947Z,3.39
2024-01-07T22:12:10.985Z,3.32
2024-01-07T22:18:04.362Z,3.43
2024-01-07T22:23:52.139Z,3.44
2024-01-07T22:29:38.995Z,3.36
2024-01-07T22:35:26.075Z,3.44
2024-01-07T22:41:16.219Z,3.40
2024-01-07T22:47:05.368Z,3.33
2024-01-07T22:52:52.286Z,3.40
2024-01-07T22:58:39.740Z,3.32
2024-01-07T23:04:29.010Z,3.37
2024-01-07T23:10:27.884Z,3.39
2024-01-07T23:16:15.153Z,3.40
2024-01-07T23:22:04.681Z,3.17
2024-01-07T23:28:15.373Z,3.33
2024-01-07T23:34:07.809Z,3.28
2024-01-07T23:39:57.528Z,3.32
2024-01-07T23:46:00.850Z,3.20
2024-01-07T23:51:53.861Z,3.32
2024-01-07T23:58:06.987Z,3.35
